Time;durP1;ratioP1;P1;durP2;ratioP2;P2;SDS_P1;SDS_P2;PMS_P1;PMS_P2;Temp;Humidity;BMP_temperature;BMP_pressure;BME280_temperature;BME280_humidity;BME280_pressure;Samples;Min_cycle;Max_cycle;Signal;HPM_P1;HPM_P2
2022/06/04 00:00:15;;;;;;;0.00;0.00;;;;;;;;;;5048904;28;20086;-63
2022/06/04 00:02:41;;;;;;;0.00;0.00;;;;;;;;;;5064739;28;20032;-64
2022/06/04 00:05:08;;;;;;;0.00;0.00;;;;;;;;;;5065765;28;20017;-63
2022/06/04 00:07:33;;;;;;;0.20;0.20;;;;;;;;;;5056903;28;20115;-64
2022/06/04 00:15:29;;;;;;;0.00;0.00;;;;;;;;;;5061587;28;20033;-65
2022/06/04 00:17:55;;;;;;;0.00;0.00;;;;;;;;;;5059658;28;20028;-65
2022/06/04 00:20:21;;;;;;;0.00;0.00;;;;;;;;;;5061236;28;20025;-65
2022/06/04 00:22:46;;;;;;;0.00;0.00;;;;;;;;;;5066306;28;20059;-65
2022/06/04 00:25:13;;;;;;;0.00;0.00;;;;;;;;;;5059985;28;20050;-65
2022/06/04 00:27:38;;;;;;;0.00;0.00;;;;;;;;;;5055494;28;20016;-65
2022/06/04 00:30:05;;;;;;;0.00;0.00;;;;;;;;;;5053263;28;20063;-65
2022/06/04 00:32:30;;;;;;;0.00;0.00;;;;;;;;;;5066591;28;20079;-66
2022/06/04 00:34:55;;;;;;;0.00;0.00;;;;;;;;;;5060980;28;20028;-63
2022/06/04 00:37:21;;;;;;;0.00;0.00;;;;;;;;;;5066693;28;20732;-64
2022/06/04 00:39:46;;;;;;;0.00;0.00;;;;;;;;;;5064187;28;20603;-63
2022/06/04 00:42:13;;;;;;;0.00;0.00;;;;;;;;;;5061757;28;20851;-64
2022/06/04 00:44:57;;;;;;;0.00;0.00;;;;;;;;;;5064324;28;20024;-63
2022/06/04 00:47:31;;;;;;;0.00;0.00;;;;;;;;;;5064392;28;20108;-63
2022/06/04 00:49:56;;;;;;;0.00;0.00;;;;;;;;;;5046498;28;20027;-65
2022/06/04 00:52:22;;;;;;;0.00;0.00;;;;;;;;;;5066560;28;20369;-65
2022/06/04 00:54:51;;;;;;;0.35;0.35;;;;;;;;;;5065486;28;20021;-65
2022/06/04 00:57:22;;;;;;;0.00;0.00;;;;;;;;;;5052431;28;20078;-64
2022/06/04 00:59:47;;;;;;;0.00;0.00;;;;;;;;;;5062446;28;20099;-64
2022/06/04 01:02:35;;;;;;;0.13;0.13;;;;;;;;;;5060403;28;20127;-66
2022/06/04 01:05:22;;;;;;;0.00;0.00;;;;;;;;;;5050724;28;20345;-66
2022/06/04 01:07:53;;;;;;;0.00;0.00;;;;;;;;;;5063801;28;20500;-66
2022/06/04 01:10:18;;;;;;;0.03;0.03;;;;;;;;;;5064728;28;20387;-66
2022/06/04 01:12:43;;;;;;;3.10;1.27;;;;;;;;;;5058809;28;20028;-66
2022/06/04 01:15:14;;;;;;;0.00;0.00;;;;;;;;;;5061011;28;20278;-66
2022/06/04 01:17:53;;;;;;;0.00;0.00;;;;;;;;;;5061417;28;20608;-66
2022/06/04 01:20:36;;;;;;;0.00;0.00;;;;;;;;;;5063715;28;20025;-66
2022/06/04 01:23:19;;;;;;;0.00;0.00;;;;;;;;;;5060772;28;20410;-66
2022/06/04 01:25:48;;;;;;;0.00;0.00;;;;;;;;;;5047334;28;20025;-65
2022/06/04 01:28:16;;;;;;;0.00;0.00;;;;;;;;;;5052485;28;20025;-64
2022/06/04 01:30:43;;;;;;;0.00;0.00;;;;;;;;;;5043273;28;20118;-64
2022/06/04 01:33:08;;;;;;;0.00;0.00;;;;;;;;;;5053293;28;20032;-64
2022/06/04 01:36:06;;;;;;;0.00;0.00;;;;;;;;;;5064632;28;20430;-63
2022/06/04 01:38:34;;;;;;;0.00;0.00;;;;;;;;;;5007505;28;20687;-64
2022/06/04 01:41:05;;;;;;;0.00;0.00;;;;;;;;;;5064260;28;20067;-64
2022/06/04 01:43:42;;;;;;;0.00;0.00;;;;;;;;;;5069361;28;20118;-64
2022/06/04 01:46:27;;;;;;;0.00;0.00;;;;;;;;;;5038572;28;20507;-65
2022/06/04 01:48:55;;;;;;;0.00;0.00;;;;;;;;;;5059424;28;20044;-66
2022/06/04 01:51:22;;;;;;;0.00;0.00;;;;;;;;;;5067963;28;20121;-65
2022/06/04 01:53:50;;;;;;;0.00;0.00;;;;;;;;;;5055840;28;20092;-63
2022/06/04 01:56:19;;;;;;;0.00;0.00;;;;;;;;;;5061251;28;20465;-64
2022/06/04 01:58:51;;;;;;;2.17;2.17;;;;;;;;;;5063808;28;20865;-63
2022/06/04 02:01:19;;;;;;;0.00;0.00;;;;;;;;;;5067828;28;20033;-63
2022/06/04 02:03:50;;;;;;;0.00;0.00;;;;;;;;;;5060665;28;20032;-62
2022/06/04 02:06:19;;;;;;;0.00;0.00;;;;;;;;;;5067694;28;20599;-64
2022/06/04 02:08:48;;;;;;;0.00;0.00;;;;;;;;;;5059686;28;20032;-63
2022/06/04 02:11:15;;;;;;;0.00;0.00;;;;;;;;;;5065840;28;20035;-60
2022/06/04 02:13:41;;;;;;;0.00;0.00;;;;;;;;;;5058418;28;20025;-61
2022/06/04 02:16:09;;;;;;;0.00;0.00;;;;;;;;;;5065616;28;20025;-59
2022/06/04 02:18:35;;;;;;;0.00;0.00;;;;;;;;;;5044583;28;20112;-60
2022/06/04 02:21:01;;;;;;;0.00;0.00;;;;;;;;;;5059675;28;20412;-61
2022/06/04 02:23:29;;;;;;;0.32;0.22;;;;;;;;;;5057505;28;20461;-61
2022/06/04 02:25:54;;;;;;;0.00;0.00;;;;;;;;;;5065366;28;20557;-62
2022/06/04 02:28:20;;;;;;;0.13;0.13;;;;;;;;;;5063762;28;20119;-61
2022/06/04 02:30:55;;;;;;;0.40;0.40;;;;;;;;;;5065169;28;20047;-61
2022/06/04 02:33:40;;;;;;;0.00;0.00;;;;;;;;;;5065312;28;20033;-61
2022/06/04 02:36:11;;;;;;;0.47;0.47;;;;;;;;;;5068933;28;20028;-62
2022/06/04 02:38:44;;;;;;;0.22;0.22;;;;;;;;;;5067642;28;20103;-61
2022/06/04 02:41:14;;;;;;;0.00;0.00;;;;;;;;;;5062106;28;20013;-61
2022/06/04 02:43:48;;;;;;;0.00;0.00;;;;;;;;;;5061636;28;20031;-61
2022/06/04 02:46:32;;;;;;;0.00;0.00;;;;;;;;;;5063740;28;20032;-60
2022/06/04 02:49:10;;;;;;;0.32;0.32;;;;;;;;;;5061101;28;20037;-60
2022/06/04 02:51:42;;;;;;;0.00;0.00;;;;;;;;;;5051517;28;20040;-60
2022/06/04 02:54:14;;;;;;;0.08;0.08;;;;;;;;;;5063015;28;20451;-60
2022/06/04 02:56:40;;;;;;;0.00;0.00;;;;;;;;;;5060987;28;20024;-60
2022/06/04 02:59:08;;;;;;;0.28;0.28;;;;;;;;;;5061646;28;20021;-60
2022/06/04 03:01:36;;;;;;;0.00;0.00;;;;;;;;;;5067745;28;20499;-61
2022/06/04 03:04:02;;;;;;;0.20;0.20;;;;;;;;;;5067652;28;20131;-61
2022/06/04 03:06:32;;;;;;;0.35;0.35;;;;;;;;;;5062000;28;20373;-61
2022/06/04 03:08:58;;;;;;;0.17;0.17;;;;;;;;;;5063975;28;20037;-61
2022/06/04 03:11:23;;;;;;;0.10;0.10;;;;;;;;;;5061157;28;20044;-61
2022/06/04 03:13:48;;;;;;;0.20;0.20;;;;;;;;;;5059137;28;20031;-62
2022/06/04 03:16:14;;;;;;;0.00;0.00;;;;;;;;;;5044581;28;20431;-62
2022/06/04 03:18:40;;;;;;;0.00;0.00;;;;;;;;;;5066560;28;20392;-61
2022/06/04 03:21:05;;;;;;;0.00;0.00;;;;;;;;;;5053688;28;20036;-61
2022/06/04 03:23:31;;;;;;;0.00;0.00;;;;;;;;;;5064974;28;20524;-61
2022/06/04 03:25:56;;;;;;;0.00;0.00;;;;;;;;;;5065763;28;20020;-62
2022/06/04 03:28:22;;;;;;;0.00;0.00;;;;;;;;;;5064967;28;20036;-62
2022/06/04 03:30:47;;;;;;;0.00;0.00;;;;;;;;;;5066804;28;20036;-61
2022/06/04 03:33:12;;;;;;;0.00;0.00;;;;;;;;;;5068363;28;20059;-62
2022/06/04 03:35:38;;;;;;;0.00;0.00;;;;;;;;;;5062842;28;20020;-61
2022/06/04 03:38:03;;;;;;;0.00;0.00;;;;;;;;;;5061566;28;20442;-61
2022/06/04 03:40:28;;;;;;;0.00;0.00;;;;;;;;;;5061095;28;20048;-61
2022/06/04 03:42:53;;;;;;;0.00;0.00;;;;;;;;;;5061958;28;20100;-63
2022/06/04 03:45:19;;;;;;;0.00;0.00;;;;;;;;;;5060908;28;20025;-62
2022/06/04 03:47:44;;;;;;;6.13;2.50;;;;;;;;;;5061012;28;20421;-62
2022/06/04 03:50:11;;;;;;;0.00;0.00;;;;;;;;;;5058113;28;20473;-61
2022/06/04 03:52:37;;;;;;;0.00;0.00;;;;;;;;;;5047812;28;20025;-62
2022/06/04 03:55:03;;;;;;;0.00;0.00;;;;;;;;;;5068170;28;20021;-61
2022/06/04 03:57:44;;;;;;;0.00;0.00;;;;;;;;;;5060510;28;20083;-62
2022/06/04 04:00:15;;;;;;;0.00;0.00;;;;;;;;;;5061294;28;20031;-62
2022/06/04 04:02:41;;;;;;;0.00;0.00;;;;;;;;;;5063506;28;20020;-62
2022/06/04 04:05:08;;;;;;;0.00;0.00;;;;;;;;;;5067820;28;20059;-62
2022/06/04 04:07:33;;;;;;;0.00;0.00;;;;;;;;;;5065901;28;20027;-62
2022/06/04 04:09:59;;;;;;;0.00;0.00;;;;;;;;;;5054998;28;20033;-62
2022/06/04 04:12:24;;;;;;;0.00;0.00;;;;;;;;;;5048678;28;20385;-62
2022/06/04 04:14:49;;;;;;;30.77;11.77;;;;;;;;;;5056898;28;20041;-62
2022/06/04 04:17:14;;;;;;;0.00;0.00;;;;;;;;;;5061860;28;20040;-62
2022/06/04 04:19:40;;;;;;;0.00;0.00;;;;;;;;;;5058838;28;20055;-62
2022/06/04 04:22:05;;;;;;;0.00;0.00;;;;;;;;;;5060705;28;20021;-62
2022/06/04 04:24:30;;;;;;;0.00;0.00;;;;;;;;;;5065518;28;20412;-62
2022/06/04 04:26:55;;;;;;;0.00;0.00;;;;;;;;;;5061046;28;20425;-62
2022/06/04 04:29:21;;;;;;;0.00;0.00;;;;;;;;;;5052114;28;20060;-62
2022/06/04 04:31:46;;;;;;;0.00;0.00;;;;;;;;;;5046560;28;20028;-61
2022/06/04 04:34:11;;;;;;;0.00;0.00;;;;;;;;;;5045634;28;20032;-61
2022/06/04 04:36:36;;;;;;;0.00;0.00;;;;;;;;;;5040138;28;20075;-61
2022/06/04 04:39:01;;;;;;;0.00;0.00;;;;;;;;;;5046034;28;20733;-61
2022/06/04 04:41:27;;;;;;;0.00;0.00;;;;;;;;;;5040609;28;20054;-61
2022/06/04 04:43:52;;;;;;;0.00;0.00;;;;;;;;;;5044277;28;20021;-61
2022/06/04 04:46:18;;;;;;;0.00;0.00;;;;;;;;;;5034006;28;20029;-61
2022/06/04 04:48:44;;;;;;;0.00;0.00;;;;;;;;;;5042093;28;20025;-62
2022/06/04 04:51:17;;;;;;;0.00;0.00;;;;;;;;;;5040903;28;20049;-62
2022/06/04 04:53:43;;;;;;;0.00;0.00;;;;;;;;;;5042669;28;20024;-62
2022/06/04 04:56:08;;;;;;;0.00;0.00;;;;;;;;;;5043692;28;20113;-62
2022/06/04 04:58:34;;;;;;;0.00;0.00;;;;;;;;;;5036039;28;20497;-62
2022/06/04 05:00:59;;;;;;;0.00;0.00;;;;;;;;;;5039745;28;20036;-63
2022/06/04 05:03:24;;;;;;;0.00;0.00;;;;;;;;;;5037457;28;20029;-62
2022/06/04 05:05:59;;;;;;;0.00;0.00;;;;;;;;;;5045786;28;20023;-63
2022/06/04 05:08:24;;;;;;;0.03;0.03;;;;;;;;;;5041432;28;20032;-62
2022/06/04 05:10:49;;;;;;;0.00;0.00;;;;;;;;;;5041175;28;20386;-63
2022/06/04 05:13:15;;;;;;;0.00;0.00;;;;;;;;;;5040841;28;20063;-63
2022/06/04 05:15:40;;;;;;;0.00;0.00;;;;;;;;;;5026389;28;20108;-63
2022/06/04 05:18:05;;;;;;;1.45;1.45;;;;;;;;;;5030504;28;20271;-63
2022/06/04 05:20:30;;;;;;;0.75;0.75;;;;;;;;;;5046074;28;20032;-63
2022/06/04 05:22:56;;;;;;;0.00;0.00;;;;;;;;;;5029271;28;20029;-62
2022/06/04 05:25:21;;;;;;;1.45;0.85;;;;;;;;;;5040085;28;20752;-62
2022/06/04 05:27:46;;;;;;;0.00;0.00;;;;;;;;;;5039914;28;20290;-61
2022/06/04 05:30:12;;;;;;;0.00;0.00;;;;;;;;;;5037945;28;20056;-61
2022/06/04 05:32:37;;;;;;;0.00;0.00;;;;;;;;;;5040554;28;20029;-62
2022/06/04 05:35:04;;;;;;;0.00;0.00;;;;;;;;;;5044723;28;20013;-62
2022/06/04 05:37:29;;;;;;;0.00;0.00;;;;;;;;;;5043395;28;20403;-61
2022/06/04 05:39:54;;;;;;;0.00;0.00;;;;;;;;;;5041572;28;20060;-61
2022/06/04 05:42:20;;;;;;;0.00;0.00;;;;;;;;;;5039886;28;20503;-61
2022/06/04 05:44:45;;;;;;;0.00;0.00;;;;;;;;;;5032989;28;20494;-61
2022/06/04 05:47:10;;;;;;;0.00;0.00;;;;;;;;;;5032210;28;20056;-61
2022/06/04 05:49:35;;;;;;;0.00;0.00;;;;;;;;;;5046322;28;20025;-62
2022/06/04 05:52:01;;;;;;;0.00;0.00;;;;;;;;;;5038917;28;20036;-63
2022/06/04 05:54:26;;;;;;;0.00;0.00;;;;;;;;;;5036654;28;20029;-63
2022/06/04 05:56:51;;;;;;;0.00;0.00;;;;;;;;;;5043312;28;20497;-63
2022/06/04 05:59:18;;;;;;;0.00;0.00;;;;;;;;;;5042291;28;20038;-63
2022/06/04 06:01:44;;;;;;;0.00;0.00;;;;;;;;;;5037204;28;20645;-62
2022/06/04 06:04:10;;;;;;;0.00;0.00;;;;;;;;;;5047797;28;20025;-62
2022/06/04 06:06:37;;;;;;;0.00;0.00;;;;;;;;;;5044352;28;20074;-62
2022/06/04 06:09:04;;;;;;;0.08;0.08;;;;;;;;;;5045459;28;20465;-63
2022/06/04 06:11:30;;;;;;;0.00;0.00;;;;;;;;;;5042469;28;20031;-62
2022/06/04 06:13:55;;;;;;;0.00;0.00;;;;;;;;;;5031940;28;20742;-63
2022/06/04 06:16:25;;;;;;;0.03;0.03;;;;;;;;;;5034987;28;20045;-62
2022/06/04 06:18:51;;;;;;;0.00;0.00;;;;;;;;;;5041174;28;20024;-63
2022/06/04 06:21:20;;;;;;;0.00;0.00;;;;;;;;;;5038788;28;20441;-62
2022/06/04 06:23:46;;;;;;;0.00;0.00;;;;;;;;;;5041242;28;20446;-62
2022/06/04 06:26:12;;;;;;;0.10;0.10;;;;;;;;;;5041356;28;20036;-61
2022/06/04 06:28:39;;;;;;;0.63;0.52;;;;;;;;;;5044173;28;20029;-61
2022/06/04 06:31:05;;;;;;;0.00;0.00;;;;;;;;;;5060089;28;20052;-61
2022/06/04 06:33:30;;;;;;;0.17;0.17;;;;;;;;;;5063786;28;20058;-61
2022/06/04 06:35:59;;;;;;;0.00;0.00;;;;;;;;;;5054723;28;20465;-61
2022/06/04 06:38:24;;;;;;;;;;;;;;;;;;5067410;28;20042;-62
2022/06/04 06:40:51;;;;;;;0.00;0.00;;;;;;;;;;5055953;28;19909;-62
2022/06/04 06:43:17;;;;;;;0.00;0.00;;;;;;;;;;5047402;28;20031;-62
2022/06/04 06:45:44;;;;;;;0.00;0.00;;;;;;;;;;5033865;28;20029;-61
2022/06/04 06:48:09;;;;;;;0.30;0.30;;;;;;;;;;5058030;28;20108;-63
2022/06/04 06:50:35;;;;;;;0.10;0.10;;;;;;;;;;5060545;28;20108;-62
2022/06/04 06:53:00;;;;;;;0.00;0.00;;;;;;;;;;5061259;28;20034;-61
2022/06/04 06:55:26;;;;;;;0.30;0.17;;;;;;;;;;5064862;28;20031;-62
2022/06/04 06:57:51;;;;;;;0.40;0.40;;;;;;;;;;5063889;28;20021;-62
2022/06/04 07:00:16;;;;;;;0.13;0.13;;;;;;;;;;5064842;28;20104;-63
2022/06/04 07:02:42;;;;;;;1.13;1.05;;;;;;;;;;5065906;28;20027;-64
2022/06/04 07:05:08;;;;;;;0.00;0.00;;;;;;;;;;5067669;28;20028;-63
2022/06/04 07:07:33;;;;;;;4.15;1.35;;;;;;;;;;5060982;28;20271;-63
2022/06/04 07:09:58;;;;;;;0.65;0.65;;;;;;;;;;5052794;28;20024;-65
2022/06/04 07:12:24;;;;;;;0.80;0.80;;;;;;;;;;5049581;28;20021;-65
2022/06/04 07:14:49;;;;;;;0.60;0.57;;;;;;;;;;5059862;28;20016;-65
2022/06/04 07:17:14;;;;;;;0.00;0.00;;;;;;;;;;5062609;28;20748;-65
2022/06/04 07:19:39;;;;;;;0.55;0.55;;;;;;;;;;5062524;28;20024;-64
2022/06/04 07:22:05;;;;;;;0.57;0.30;;;;;;;;;;5055581;28;20025;-64
2022/06/04 07:24:30;;;;;;;0.80;0.80;;;;;;;;;;5061112;28;20063;-64
2022/06/04 07:26:57;;;;;;;0.00;0.00;;;;;;;;;;5066786;28;20093;-65
2022/06/04 07:29:22;;;;;;;0.32;0.32;;;;;;;;;;5059573;28;20098;-64
2022/06/04 07:31:47;;;;;;;0.25;0.25;;;;;;;;;;5063765;28;20032;-64
2022/06/04 07:34:12;;;;;;;0.00;0.00;;;;;;;;;;5059354;28;20035;-65
2022/06/04 07:36:40;;;;;;;0.00;0.00;;;;;;;;;;5061349;28;20028;-64
2022/06/04 07:39:06;;;;;;;0.00;0.00;;;;;;;;;;5051413;28;20025;-65
2022/06/04 07:41:35;;;;;;;0.00;0.00;;;;;;;;;;5054790;28;20024;-65
2022/06/04 07:44:00;;;;;;;0.00;0.00;;;;;;;;;;5058639;28;20036;-64
2022/06/04 07:46:27;;;;;;;0.00;0.00;;;;;;;;;;5059333;28;20027;-64
2022/06/04 07:48:56;;;;;;;0.80;0.65;;;;;;;;;;5057970;28;20025;-64
2022/06/04 07:51:21;;;;;;;0.10;0.10;;;;;;;;;;5057453;28;20489;-64
2022/06/04 07:53:47;;;;;;;1.13;0.57;;;;;;;;;;5060390;28;20068;-64
2022/06/04 07:56:14;;;;;;;0.52;0.52;;;;;;;;;;5063073;28;20259;-64
2022/06/04 07:58:40;;;;;;;0.00;0.00;;;;;;;;;;5059495;28;20051;-65
2022/06/04 08:01:05;;;;;;;0.30;0.30;;;;;;;;;;5054913;28;20036;-65
2022/06/04 08:03:33;;;;;;;0.00;0.00;;;;;;;;;;5063476;28;20025;-64
2022/06/04 08:05:58;;;;;;;0.13;0.13;;;;;;;;;;5066412;28;20025;-63
2022/06/04 08:08:23;;;;;;;0.00;0.00;;;;;;;;;;5052224;28;21127;-61
2022/06/04 08:10:49;;;;;;;0.00;0.00;;;;;;;;;;5050248;28;20039;-64
2022/06/04 08:13:16;;;;;;;0.25;0.25;;;;;;;;;;5054097;28;20055;-64
2022/06/04 08:15:42;;;;;;;0.50;0.50;;;;;;;;;;5041729;28;20016;-64
2022/06/04 08:18:08;;;;;;;0.00;0.00;;;;;;;;;;5057601;28;20090;-60
2022/06/04 08:20:33;;;;;;;0.00;0.00;;;;;;;;;;5060471;28;20397;-63
2022/06/04 08:22:58;;;;;;;0.08;0.08;;;;;;;;;;5057387;28;20024;-62
2022/06/04 08:25:24;;;;;;;0.00;0.00;;;;;;;;;;5051686;28;20025;-61
2022/06/04 08:27:49;;;;;;;0.10;0.10;;;;;;;;;;5051073;28;20157;-60
2022/06/04 08:30:14;;;;;;;0.00;0.00;;;;;;;;;;5054226;28;20056;-61
2022/06/04 08:32:40;;;;;;;0.00;0.00;;;;;;;;;;5053151;28;20078;-61
2022/06/04 08:35:05;;;;;;;0.00;0.00;;;;;;;;;;5052116;28;20024;-60
2022/06/04 08:37:30;;;;;;;0.05;0.00;;;;;;;;;;5043909;28;20029;-61
2022/06/04 08:39:57;;;;;;;0.20;0.20;;;;;;;;;;5050058;28;20024;-60
2022/06/04 08:42:42;;;;;;;0.00;0.00;;;;;;;;;;5053239;28;20458;-61
2022/06/04 08:45:10;;;;;;;0.00;0.00;;;;;;;;;;5038313;28;20044;-61
2022/06/04 08:47:38;;;;;;;0.40;0.40;;;;;;;;;;5043912;28;20103;-61
2022/06/04 08:50:10;;;;;;;0.00;0.00;;;;;;;;;;5056180;28;20136;-62
2022/06/04 08:52:43;;;;;;;0.00;0.00;;;;;;;;;;5056544;28;20389;-62
2022/06/04 08:58:10;;;;;;;0.20;0.20;;;;;;;;;;5048347;28;20420;-60
2022/06/04 09:00:40;;;;;;;0.00;0.00;;;;;;;;;;5054347;28;20094;-61
2022/06/04 09:03:12;;;;;;;0.10;0.10;;;;;;;;;;5056395;28;20147;-61
2022/06/04 09:05:57;;;;;;;0.20;0.20;;;;;;;;;;5047691;28;20167;-62
2022/06/04 09:08:32;;;;;;;0.00;0.00;;;;;;;;;;5054768;28;20113;-62
2022/06/04 09:10:58;;;;;;;0.52;0.52;;;;;;;;;;5055427;28;20025;-62
2022/06/04 09:13:28;;;;;;;0.00;0.00;;;;;;;;;;5054407;28;20106;-62
2022/06/04 09:15:56;;;;;;;0.00;0.00;;;;;;;;;;5057583;28;20098;-61
2022/06/04 09:18:35;;;;;;;0.00;0.00;;;;;;;;;;5049755;28;20154;-61
2022/06/04 09:21:01;;;;;;;0.00;0.00;;;;;;;;;;5056411;28;20115;-60
2022/06/04 09:23:36;;;;;;;0.00;0.00;;;;;;;;;;5050128;28;20153;-61
2022/06/04 09:26:13;;;;;;;0.35;0.35;;;;;;;;;;5057427;28;20028;-60
2022/06/04 09:28:47;;;;;;;0.00;0.00;;;;;;;;;;5048870;28;20071;-60
2022/06/04 09:31:21;;;;;;;0.00;0.00;;;;;;;;;;5055630;28;20052;-61
2022/06/04 09:33:46;;;;;;;0.03;0.03;;;;;;;;;;5056135;28;20505;-61
2022/06/04 09:36:14;;;;;;;1.60;1.50;;;;;;;;;;5053052;28;20020;-62
2022/06/04 09:38:39;;;;;;;1.08;0.65;;;;;;;;;;5050752;28;20044;-60
2022/06/04 09:41:18;;;;;;;0.40;0.40;;;;;;;;;;5052751;28;20032;-61
2022/06/04 09:43:43;;;;;;;0.00;0.00;;;;;;;;;;5061738;28;20492;-62
2022/06/04 09:46:08;;;;;;;0.00;0.00;;;;;;;;;;5035060;28;20050;-61
2022/06/04 09:48:36;;;;;;;0.52;0.52;;;;;;;;;;5049114;28;20028;-61
2022/06/04 09:51:02;;;;;;;0.08;0.05;;;;;;;;;;5060127;28;20021;-60
2022/06/04 09:53:32;;;;;;;3.85;2.50;;;;;;;;;;5052006;28;20032;-61
2022/06/04 09:56:27;;;;;;;0.00;0.00;;;;;;;;;;5049331;28;20021;-61
2022/06/04 09:58:53;;;;;;;3.17;1.15;;;;;;;;;;5048718;28;20063;-60
2022/06/04 10:01:18;;;;;;;0.63;0.63;;;;;;;;;;5050923;28;20533;-61
2022/06/04 10:03:45;;;;;;;1.00;0.97;;;;;;;;;;5046234;28;20047;-61
2022/06/04 10:06:12;;;;;;;0.00;0.00;;;;;;;;;;5057767;28;20111;-61
2022/06/04 10:11:30;;;;;;;0.45;0.45;;;;;;;;;;5053379;28;20028;-60
2022/06/04 10:13:56;;;;;;;0.30;0.30;;;;;;;;;;5058843;28;20381;-61
2022/06/04 10:16:22;;;;;;;0.20;0.20;;;;;;;;;;5057220;28;20032;-61
2022/06/04 10:18:55;;;;;;;0.10;0.10;;;;;;;;;;5065492;28;20017;-61
2022/06/04 10:21:23;;;;;;;0.00;0.00;;;;;;;;;;5050913;28;20473;-61
2022/06/04 10:23:50;;;;;;;0.35;0.20;;;;;;;;;;5058900;28;20028;-62
2022/06/04 10:26:30;;;;;;;0.00;0.00;;;;;;;;;;5064201;28;20052;-61
2022/06/04 10:29:14;;;;;;;0.20;0.20;;;;;;;;;;5058906;28;20058;-61
2022/06/04 10:31:42;;;;;;;0.25;0.25;;;;;;;;;;5056640;28;20051;-60
2022/06/04 10:34:24;;;;;;;0.27;0.27;;;;;;;;;;5055935;28;20035;-61
2022/06/04 10:36:55;;;;;;;0.63;0.30;;;;;;;;;;5046541;28;20056;-61
2022/06/04 10:39:28;;;;;;;0.38;0.38;;;;;;;;;;5057107;28;20032;-61
2022/06/04 10:42:02;;;;;;;1.35;0.57;;;;;;;;;;5063433;28;21827;-61
2022/06/04 10:44:33;;;;;;;1.48;1.38;;;;;;;;;;5048391;28;20181;-61
2022/06/04 10:47:03;;;;;;;0.70;0.70;;;;;;;;;;5050860;28;20029;-60
2022/06/04 10:49:47;;;;;;;0.20;0.20;;;;;;;;;;5046080;28;20036;-61
2022/06/04 10:52:22;;;;;;;0.70;0.70;;;;;;;;;;5050025;28;20025;-62
2022/06/04 10:54:47;;;;;;;1.10;1.02;;;;;;;;;;5048332;28;20456;-62
2022/06/04 10:57:18;;;;;;;0.10;0.10;;;;;;;;;;5052510;28;20021;-61
2022/06/04 10:59:47;;;;;;;0.00;0.00;;;;;;;;;;5055540;28;20481;-60
2022/06/04 11:02:12;;;;;;;1.17;1.17;;;;;;;;;;5052070;28;20029;-60
2022/06/04 11:04:44;;;;;;;7.30;0.83;;;;;;;;;;5067171;28;20140;-60
2022/06/04 11:07:29;;;;;;;0.20;0.20;;;;;;;;;;5050857;28;20272;-60
2022/06/04 11:09:55;;;;;;;0.10;0.10;;;;;;;;;;5053179;28;20385;-60
2022/06/04 11:12:23;;;;;;;0.50;0.50;;;;;;;;;;5056463;28;20422;-61
2022/06/04 11:14:51;;;;;;;0.90;0.30;;;;;;;;;;5048372;28;20497;-61
2022/06/04 11:17:24;;;;;;;0.77;0.40;;;;;;;;;;5034738;28;20021;-61
2022/06/04 11:19:55;;;;;;;0.05;0.05;;;;;;;;;;5056097;28;20254;-61
2022/06/04 11:22:35;;;;;;;0.00;0.00;;;;;;;;;;5059763;28;20116;-61
2022/06/04 11:25:03;;;;;;;0.00;0.00;;;;;;;;;;5060784;28;20113;-61
2022/06/04 11:27:33;;;;;;;0.35;0.35;;;;;;;;;;5059608;28;20025;-62
2022/06/04 11:30:00;;;;;;;0.40;0.40;;;;;;;;;;5057449;28;20489;-61
2022/06/04 11:32:31;;;;;;;0.95;0.88;;;;;;;;;;5060839;28;20025;-61
2022/06/04 11:34:56;;;;;;;0.20;0.20;;;;;;;;;;5056640;28;20025;-61
2022/06/04 11:37:37;;;;;;;1.85;1.75;;;;;;;;;;5050883;28;20021;-61
2022/06/04 11:40:11;;;;;;;0.60;0.60;;;;;;;;;;5052633;28;20368;-61
2022/06/04 11:42:39;;;;;;;0.20;0.20;;;;;;;;;;5054299;28;20485;-62
2022/06/04 11:45:18;;;;;;;0.45;0.45;;;;;;;;;;5060510;28;20020;-62
2022/06/04 11:47:49;;;;;;;0.00;0.00;;;;;;;;;;5055938;28;20017;-61
2022/06/04 11:50:17;;;;;;;1.27;1.27;;;;;;;;;;5061402;28;20021;-62
2022/06/04 11:53:03;;;;;;;0.82;0.82;;;;;;;;;;5055049;28;19917;-61
2022/06/04 11:55:31;;;;;;;1.33;0.63;;;;;;;;;;5058202;28;20100;-61
2022/06/04 11:58:04;;;;;;;0.00;0.00;;;;;;;;;;5056238;28;20017;-61
2022/06/04 12:00:31;;;;;;;0.00;0.00;;;;;;;;;;5051785;28;20104;-61
2022/06/04 12:02:59;;;;;;;0.00;0.00;;;;;;;;;;5060189;28;20055;-61
2022/06/04 12:05:33;;;;;;;0.47;0.47;;;;;;;;;;5054606;28;20024;-61
2022/06/04 12:08:04;;;;;;;0.00;0.00;;;;;;;;;;5058281;28;20146;-59
2022/06/04 12:10:32;;;;;;;0.13;0.13;;;;;;;;;;5051137;28;20025;-61
2022/06/04 12:13:16;;;;;;;0.60;0.60;;;;;;;;;;5051082;28;20153;-61
2022/06/04 12:15:41;;;;;;;0.10;0.10;;;;;;;;;;5059995;28;20083;-61
2022/06/04 12:18:22;;;;;;;0.83;0.83;;;;;;;;;;5053699;28;20029;-61
2022/06/04 12:26:26;;;;;;;0.30;0.30;;;;;;;;;;5057571;28;20027;-62
2022/06/04 12:28:51;;;;;;;0.00;0.00;;;;;;;;;;5033122;28;20386;-61
2022/06/04 12:31:36;;;;;;;0.52;0.52;;;;;;;;;;5059263;28;20523;-61
2022/06/04 12:34:23;;;;;;;0.57;0.57;;;;;;;;;;5053813;28;20055;-61
2022/06/04 12:36:52;;;;;;;0.88;0.82;;;;;;;;;;5057828;28;20029;-61
2022/06/04 12:39:27;;;;;;;0.10;0.10;;;;;;;;;;5061504;28;20554;-61
2022/06/04 12:41:57;;;;;;;0.00;0.00;;;;;;;;;;5059193;28;20438;-61
2022/06/04 12:44:42;;;;;;;0.77;0.77;;;;;;;;;;5050425;28;20116;-60
2022/06/04 12:47:10;;;;;;;0.00;0.00;;;;;;;;;;5049861;28;20032;-60
2022/06/04 12:49:45;;;;;;;0.30;0.30;;;;;;;;;;5054390;28;20017;-63
2022/06/04 12:52:29;;;;;;;1.40;0.80;;;;;;;;;;5060269;28;20059;-60
2022/06/04 12:55:00;;;;;;;0.88;0.88;;;;;;;;;;5059293;28;20062;-58
2022/06/04 12:57:34;;;;;;;0.60;0.60;;;;;;;;;;5047947;28;20020;-61
2022/06/04 13:00:18;;;;;;;0.15;0.15;;;;;;;;;;5046643;28;20017;-64
2022/06/04 13:02:55;;;;;;;0.70;0.47;;;;;;;;;;5054511;28;20035;-60
2022/06/04 13:05:22;;;;;;;0.20;0.20;;;;;;;;;;5052616;28;20013;-61
2022/06/04 13:07:48;;;;;;;0.20;0.20;;;;;;;;;;5059184;28;20086;-59
2022/06/04 13:10:33;;;;;;;0.70;0.45;;;;;;;;;;5065001;28;20024;-59
2022/06/04 13:13:01;;;;;;;0.82;0.82;;;;;;;;;;5059207;28;20653;-59
2022/06/04 13:15:33;;;;;;;0.00;0.00;;;;;;;;;;5064570;28;20025;-59
2022/06/04 13:17:59;;;;;;;0.15;0.15;;;;;;;;;;5061128;28;20054;-59
2022/06/04 13:20:36;;;;;;;0.55;0.55;;;;;;;;;;5063173;28;20062;-60
2022/06/04 13:23:21;;;;;;;0.13;0.13;;;;;;;;;;5057791;28;20030;-60
2022/06/04 13:25:52;;;;;;;0.40;0.40;;;;;;;;;;5048181;28;20037;-60
2022/06/04 13:28:30;;;;;;;0.00;0.00;;;;;;;;;;5053951;28;20166;-61
2022/06/04 13:30:55;;;;;;;0.00;0.00;;;;;;;;;;5021094;28;20037;-60
2022/06/04 13:33:21;;;;;;;0.08;0.08;;;;;;;;;;5031989;28;20040;-61
2022/06/04 13:35:47;;;;;;;0.00;0.00;;;;;;;;;;5039276;28;20392;-60
2022/06/04 13:38:25;;;;;;;0.10;0.10;;;;;;;;;;5025529;28;20036;-60
2022/06/04 13:40:56;;;;;;;0.00;0.00;;;;;;;;;;5027772;28;20056;-60
2022/06/04 13:43:22;;;;;;;0.00;0.00;;;;;;;;;;5037591;28;20033;-60
2022/06/04 13:45:47;;;;;;;0.10;0.10;;;;;;;;;;5031457;28;20037;-60
2022/06/04 13:48:19;;;;;;;0.10;0.10;;;;;;;;;;5031302;28;20037;-61
2022/06/04 13:50:49;;;;;;;0.00;0.00;;;;;;;;;;5030423;28;20037;-61
2022/06/04 13:53:20;;;;;;;0.32;0.32;;;;;;;;;;5035125;28;20151;-59
2022/06/04 13:55:57;;;;;;;0.00;0.00;;;;;;;;;;5038393;28;20526;-60
2022/06/04 13:58:22;;;;;;;0.00;0.00;;;;;;;;;;5031668;28;20043;-60
2022/06/04 14:00:55;;;;;;;0.65;0.65;;;;;;;;;;5032023;28;20615;-60
2022/06/04 14:03:26;;;;;;;0.10;0.10;;;;;;;;;;5030211;28;20082;-60
2022/06/04 14:05:53;;;;;;;0.77;0.50;;;;;;;;;;5028897;28;20072;-60
2022/06/04 14:08:25;;;;;;;0.30;0.30;;;;;;;;;;5027953;28;20037;-59
2022/06/04 14:11:00;;;;;;;0.00;0.00;;;;;;;;;;5043326;28;20025;-60
2022/06/04 14:13:31;;;;;;;2.30;0.85;;;;;;;;;;5035469;28;20055;-60
2022/06/04 14:15:56;;;;;;;0.43;0.43;;;;;;;;;;5037356;28;20021;-61
2022/06/04 14:18:22;;;;;;;1.10;1.10;;;;;;;;;;5029369;28;20030;-60
2022/06/04 14:21:03;;;;;;;1.45;0.73;;;;;;;;;;5030586;28;20268;-60
2022/06/04 14:23:29;;;;;;;0.13;0.13;;;;;;;;;;5026686;28;20036;-60
2022/06/04 14:26:14;;;;;;;0.83;0.83;;;;;;;;;;5030920;28;20010;-60
2022/06/04 14:29:06;;;;;;;0.17;0.17;;;;;;;;;;5030123;28;20038;-60
2022/06/04 14:31:31;;;;;;;2.05;0.90;;;;;;;;;;5024256;28;20535;-61
2022/06/04 14:33:57;;;;;;;0.47;0.47;;;;;;;;;;5060581;28;20024;-60
2022/06/04 14:36:23;;;;;;;0.00;0.00;;;;;;;;;;5058729;28;20876;-60
2022/06/04 14:38:49;;;;;;;0.00;0.00;;;;;;;;;;5067501;28;20032;-60
2022/06/04 14:41:17;;;;;;;0.10;0.10;;;;;;;;;;5064198;28;20398;-60
2022/06/04 14:43:49;;;;;;;0.57;0.57;;;;;;;;;;5055082;28;20044;-61
2022/06/04 14:46:14;;;;;;;0.55;0.55;;;;;;;;;;5061219;28;20040;-62
2022/06/04 14:49:07;;;;;;;0.43;0.43;;;;;;;;;;5060923;28;20017;-61
2022/06/04 14:51:51;;;;;;;0.25;0.25;;;;;;;;;;5051115;28;20310;-62
2022/06/04 14:54:17;;;;;;;0.00;0.00;;;;;;;;;;5052450;28;20013;-62
2022/06/04 14:56:42;;;;;;;0.25;0.25;;;;;;;;;;5054050;28;20665;-61
2022/06/04 14:59:20;;;;;;;0.00;0.00;;;;;;;;;;5055522;28;20115;-61
2022/06/04 15:01:58;;;;;;;0.40;0.40;;;;;;;;;;5055819;28;20021;-60
2022/06/04 15:07:35;;;;;;;0.00;0.00;;;;;;;;;;5059674;28;20357;-61
2022/06/04 15:10:15;;;;;;;0.60;0.57;;;;;;;;;;5065794;28;20040;-61
2022/06/04 15:12:43;;;;;;;0.00;0.00;;;;;;;;;;5056842;28;20488;-61
2022/06/04 15:15:14;;;;;;;0.00;0.00;;;;;;;;;;5067706;28;20027;-61